sensor_id;sensor_type;location;lat;lon;timestamp;temperature;humidity
39665;DHT22;26679;50.872;4.332;2023-05-29T00:01:13;17.30;97.10
39665;DHT22;26679;50.872;4.332;2023-05-29T00:03:44;17.20;97.30
39665;DHT22;26679;50.872;4.332;2023-05-29T00:06:09;17.30;97.20
39665;DHT22;26679;50.872;4.332;2023-05-29T00:08:35;17.30;97.10
39665;DHT22;26679;50.872;4.332;2023-05-29T00:11:01;17.30;97.00
39665;DHT22;26679;50.872;4.332;2023-05-29T00:13:27;17.30;96.90
39665;DHT22;26679;50.872;4.332;2023-05-29T00:15:52;17.20;97.10
39665;DHT22;26679;50.872;4.332;2023-05-29T00:18:18;17.20;97.20
39665;DHT22;26679;50.872;4.332;2023-05-29T00:20:43;17.10;97.30
39665;DHT22;26679;50.872;4.332;2023-05-29T00:23:09;17.00;97.60
39665;DHT22;26679;50.872;4.332;2023-05-29T00:25:35;17.00;97.80
39665;DHT22;26679;50.872;4.332;2023-05-29T00:28:00;16.90;97.80
39665;DHT22;26679;50.872;4.332;2023-05-29T00:30:26;16.90;97.90
39665;DHT22;26679;50.872;4.332;2023-05-29T00:32:51;16.80;98.00
39665;DHT22;26679;50.872;4.332;2023-05-29T00:35:17;16.60;98.50
39665;DHT22;26679;50.872;4.332;2023-05-29T00:37:43;16.70;98.50
39665;DHT22;26679;50.872;4.332;2023-05-29T00:40:08;16.80;98.50
39665;DHT22;26679;50.872;4.332;2023-05-29T00:42:34;16.70;98.40
39665;DHT22;26679;50.872;4.332;2023-05-29T00:45:00;16.60;98.60
39665;DHT22;26679;50.872;4.332;2023-05-29T00:47:25;16.40;98.90
39665;DHT22;26679;50.872;4.332;2023-05-29T00:49:51;16.50;98.90
39665;DHT22;26679;50.872;4.332;2023-05-29T00:52:17;16.50;98.80
39665;DHT22;26679;50.872;4.332;2023-05-29T00:54:44;16.50;98.90
39665;DHT22;26679;50.872;4.332;2023-05-29T00:57:09;16.50;98.80
39665;DHT22;26679;50.872;4.332;2023-05-29T00:59:35;16.20;99.30
39665;DHT22;26679;50.872;4.332;2023-05-29T01:02:01;16.10;99.60
39665;DHT22;26679;50.872;4.332;2023-05-29T01:04:27;15.90;99.90
39665;DHT22;26679;50.872;4.332;2023-05-29T01:06:53;15.90;99.90
39665;DHT22;26679;50.872;4.332;2023-05-29T01:09:18;15.70;99.90
39665;DHT22;26679;50.872;4.332;2023-05-29T01:17:04;15.50;99.90
39665;DHT22;26679;50.872;4.332;2023-05-29T01:27:05;15.10;99.90
39665;DHT22;26679;50.872;4.332;2023-05-29T01:29:33;15.10;99.90
39665;DHT22;26679;50.872;4.332;2023-05-29T01:31:59;15.00;99.90
39665;DHT22;26679;50.872;4.332;2023-05-29T01:34:27;15.10;99.90
39665;DHT22;26679;50.872;4.332;2023-05-29T01:36:52;15.10;99.90
39665;DHT22;26679;50.872;4.332;2023-05-29T01:39:18;15.00;99.90
39665;DHT22;26679;50.872;4.332;2023-05-29T01:41:44;14.80;99.90
39665;DHT22;26679;50.872;4.332;2023-05-29T01:44:10;14.80;99.90
39665;DHT22;26679;50.872;4.332;2023-05-29T01:46:37;14.80;99.90
39665;DHT22;26679;50.872;4.332;2023-05-29T01:49:04;14.90;99.90
39665;DHT22;26679;50.872;4.332;2023-05-29T01:51:30;15.00;99.90
39665;DHT22;26679;50.872;4.332;2023-05-29T01:53:57;15.00;99.90
39665;DHT22;26679;50.872;4.332;2023-05-29T01:56:23;14.70;99.90
39665;DHT22;26679;50.872;4.332;2023-05-29T01:58:49;14.80;99.90
39665;DHT22;26679;50.872;4.332;2023-05-29T02:01:15;14.90;99.90
39665;DHT22;26679;50.872;4.332;2023-05-29T02:03:41;14.90;99.90
39665;DHT22;26679;50.872;4.332;2023-05-29T02:06:07;14.60;99.90
39665;DHT22;26679;50.872;4.332;2023-05-29T02:08:32;14.30;99.90
39665;DHT22;26679;50.872;4.332;2023-05-29T02:10:58;14.10;99.90
39665;DHT22;26679;50.872;4.332;2023-05-29T02:13:23;14.10;99.90
39665;DHT22;26679;50.872;4.332;2023-05-29T02:15:49;14.20;99.90
39665;DHT22;26679;50.872;4.332;2023-05-29T02:18:15;14.30;99.90
39665;DHT22;26679;50.872;4.332;2023-05-29T02:20:42;14.30;99.90
39665;DHT22;26679;50.872;4.332;2023-05-29T02:23:08;14.30;99.90
39665;DHT22;26679;50.872;4.332;2023-05-29T02:25:34;14.50;99.90
39665;DHT22;26679;50.872;4.332;2023-05-29T02:28:00;14.60;99.90
39665;DHT22;26679;50.872;4.332;2023-05-29T02:30:27;14.60;99.90
39665;DHT22;26679;50.872;4.332;2023-05-29T02:32:52;14.60;99.90
39665;DHT22;26679;50.872;4.332;2023-05-29T02:35:18;14.50;99.90
39665;DHT22;26679;50.872;4.332;2023-05-29T02:37:46;14.40;99.90
39665;DHT22;26679;50.872;4.332;2023-05-29T02:40:11;14.50;99.90
39665;DHT22;26679;50.872;4.332;2023-05-29T02:42:37;14.60;99.90
39665;DHT22;26679;50.872;4.332;2023-05-29T02:45:02;14.40;99.90
39665;DHT22;26679;50.872;4.332;2023-05-29T02:47:28;14.20;99.90
39665;DHT22;26679;50.872;4.332;2023-05-29T02:49:53;14.10;99.90
39665;DHT22;26679;50.872;4.332;2023-05-29T02:52:19;14.00;99.90
39665;DHT22;26679;50.872;4.332;2023-05-29T02:54:44;13.80;99.90
39665;DHT22;26679;50.872;4.332;2023-05-29T02:57:10;13.80;99.90
39665;DHT22;26679;50.872;4.332;2023-05-29T02:59:37;13.90;99.90
39665;DHT22;26679;50.872;4.332;2023-05-29T03:02:02;13.70;99.90
39665;DHT22;26679;50.872;4.332;2023-05-29T03:04:28;13.70;99.90
39665;DHT22;26679;50.872;4.332;2023-05-29T03:06:53;13.80;99.90
39665;DHT22;26679;50.872;4.332;2023-05-29T03:09:19;13.80;99.90
39665;DHT22;26679;50.872;4.332;2023-05-29T03:11:45;13.90;99.90
39665;DHT22;26679;50.872;4.332;2023-05-29T03:14:13;14.00;99.90
39665;DHT22;26679;50.872;4.332;2023-05-29T03:16:38;14.00;99.90
39665;DHT22;26679;50.872;4.332;2023-05-29T03:19:06;13.90;99.90
39665;DHT22;26679;50.872;4.332;2023-05-29T03:21:32;14.00;99.90
39665;DHT22;26679;50.872;4.332;2023-05-29T03:23:58;14.00;99.90
39665;DHT22;26679;50.872;4.332;2023-05-29T03:26:23;14.00;99.90
39665;DHT22;26679;50.872;4.332;2023-05-29T03:28:51;14.00;99.90
39665;DHT22;26679;50.872;4.332;2023-05-29T03:31:16;13.80;99.90
39665;DHT22;26679;50.872;4.332;2023-05-29T03:33:42;13.70;99.90
39665;DHT22;26679;50.872;4.332;2023-05-29T03:36:07;13.70;99.90
39665;DHT22;26679;50.872;4.332;2023-05-29T03:38:33;13.70;99.90
39665;DHT22;26679;50.872;4.332;2023-05-29T03:40:58;13.70;99.90
39665;DHT22;26679;50.872;4.332;2023-05-29T03:43:24;13.40;99.90
39665;DHT22;26679;50.872;4.332;2023-05-29T03:45:49;13.50;99.90
39665;DHT22;26679;50.872;4.332;2023-05-29T03:48:15;13.60;99.90
39665;DHT22;26679;50.872;4.332;2023-05-29T03:50:40;13.40;99.90
39665;DHT22;26679;50.872;4.332;2023-05-29T03:53:06;13.40;99.90
39665;DHT22;26679;50.872;4.332;2023-05-29T03:55:31;13.40;99.90
39665;DHT22;26679;50.872;4.332;2023-05-29T03:57:57;13.50;99.90
39665;DHT22;26679;50.872;4.332;2023-05-29T04:00:22;13.50;99.90
39665;DHT22;26679;50.872;4.332;2023-05-29T04:02:48;13.30;99.90
39665;DHT22;26679;50.872;4.332;2023-05-29T04:05:13;13.30;99.90
39665;DHT22;26679;50.872;4.332;2023-05-29T04:07:39;13.30;99.90
39665;DHT22;26679;50.872;4.332;2023-05-29T04:10:05;13.40;99.90
39665;DHT22;26679;50.872;4.332;2023-05-29T04:12:32;13.50;99.90
39665;DHT22;26679;50.872;4.332;2023-05-29T04:14:57;13.50;99.90
39665;DHT22;26679;50.872;4.332;2023-05-29T04:17:23;13.30;99.90
39665;DHT22;26679;50.872;4.332;2023-05-29T04:19:48;13.10;99.90
39665;DHT22;26679;50.872;4.332;2023-05-29T04:22:14;12.90;99.90
39665;DHT22;26679;50.872;4.332;2023-05-29T04:24:40;12.90;99.90
39665;DHT22;26679;50.872;4.332;2023-05-29T04:27:07;12.90;99.90
39665;DHT22;26679;50.872;4.332;2023-05-29T04:29:34;12.90;99.90
39665;DHT22;26679;50.872;4.332;2023-05-29T04:32:00;12.80;99.90
39665;DHT22;26679;50.872;4.332;2023-05-29T04:34:31;12.60;99.90
39665;DHT22;26679;50.872;4.332;2023-05-29T04:36:57;12.70;99.90
39665;DHT22;26679;50.872;4.332;2023-05-29T04:39:23;12.80;99.90
39665;DHT22;26679;50.872;4.332;2023-05-29T04:41:50;12.80;99.90
39665;DHT22;26679;50.872;4.332;2023-05-29T04:44:15;12.70;99.90
39665;DHT22;26679;50.872;4.332;2023-05-29T04:46:41;12.60;99.90
39665;DHT22;26679;50.872;4.332;2023-05-29T04:49:09;12.60;99.90
39665;DHT22;26679;50.872;4.332;2023-05-29T04:51:35;12.50;99.90
39665;DHT22;26679;50.872;4.332;2023-05-29T04:54:01;12.50;99.90
39665;DHT22;26679;50.872;4.332;2023-05-29T04:56:27;12.50;99.90
39665;DHT22;26679;50.872;4.332;2023-05-29T04:58:53;12.60;99.90
39665;DHT22;26679;50.872;4.332;2023-05-29T05:01:19;12.70;99.90
39665;DHT22;26679;50.872;4.332;2023-05-29T05:03:44;12.80;99.90
39665;DHT22;26679;50.872;4.332;2023-05-29T05:06:10;12.80;99.90
39665;DHT22;26679;50.872;4.332;2023-05-29T05:08:36;12.90;99.90
39665;DHT22;26679;50.872;4.332;2023-05-29T05:11:01;12.90;99.90
39665;DHT22;26679;50.872;4.332;2023-05-29T05:13:27;12.80;99.90
39665;DHT22;26679;50.872;4.332;2023-05-29T05:15:53;12.70;99.90
39665;DHT22;26679;50.872;4.332;2023-05-29T05:18:18;12.80;99.90
39665;DHT22;26679;50.872;4.332;2023-05-29T05:20:44;12.70;99.90
39665;DHT22;26679;50.872;4.332;2023-05-29T05:23:10;12.80;99.90
39665;DHT22;26679;50.872;4.332;2023-05-29T05:25:36;12.80;99.90
39665;DHT22;26679;50.872;4.332;2023-05-29T05:28:04;12.90;99.90
39665;DHT22;26679;50.872;4.332;2023-05-29T05:30:29;12.80;99.90
39665;DHT22;26679;50.872;4.332;2023-05-29T05:32:55;12.90;99.90
39665;DHT22;26679;50.872;4.332;2023-05-29T05:35:21;13.00;99.90
39665;DHT22;26679;50.872;4.332;2023-05-29T05:37:47;13.00;99.90
39665;DHT22;26679;50.872;4.332;2023-05-29T05:40:12;12.90;99.90
39665;DHT22;26679;50.872;4.332;2023-05-29T05:42:38;12.90;99.90
39665;DHT22;26679;50.872;4.332;2023-05-29T05:45:04;13.10;99.90
39665;DHT22;26679;50.872;4.332;2023-05-29T05:47:29;13.00;99.90
39665;DHT22;26679;50.872;4.332;2023-05-29T05:49:55;12.80;99.90
39665;DHT22;26679;50.872;4.332;2023-05-29T05:52:21;12.90;99.90
39665;DHT22;26679;50.872;4.332;2023-05-29T05:54:46;12.80;99.90
39665;DHT22;26679;50.872;4.332;2023-05-29T05:57:12;12.90;99.90
39665;DHT22;26679;50.872;4.332;2023-05-29T05:59:38;12.60;99.90
39665;DHT22;26679;50.872;4.332;2023-05-29T06:02:04;12.70;99.90
39665;DHT22;26679;50.872;4.332;2023-05-29T06:04:30;12.80;99.90
39665;DHT22;26679;50.872;4.332;2023-05-29T06:06:55;13.10;99.90
39665;DHT22;26679;50.872;4.332;2023-05-29T06:09:21;13.30;99.90
39665;DHT22;26679;50.872;4.332;2023-05-29T06:11:47;13.20;99.90
39665;DHT22;26679;50.872;4.332;2023-05-29T06:14:13;13.30;99.90
39665;DHT22;26679;50.872;4.332;2023-05-29T06:16:39;13.40;99.70
39665;DHT22;26679;50.872;4.332;2023-05-29T06:19:04;13.40;99.70
39665;DHT22;26679;50.872;4.332;2023-05-29T06:21:31;13.30;99.60
39665;DHT22;26679;50.872;4.332;2023-05-29T06:23:57;13.20;99.90
39665;DHT22;26679;50.872;4.332;2023-05-29T06:26:22;13.30;99.90
39665;DHT22;26679;50.872;4.332;2023-05-29T06:28:48;13.20;99.90
39665;DHT22;26679;50.872;4.332;2023-05-29T06:31:14;13.30;99.90
39665;DHT22;26679;50.872;4.332;2023-05-29T06:33:39;13.50;99.50
39665;DHT22;26679;50.872;4.332;2023-05-29T06:36:05;13.60;99.40
39665;DHT22;26679;50.872;4.332;2023-05-29T06:38:32;13.90;99.20
39665;DHT22;26679;50.872;4.332;2023-05-29T06:40:57;14.00;98.70
39665;DHT22;26679;50.872;4.332;2023-05-29T06:43:23;13.90;98.60
39665;DHT22;26679;50.872;4.332;2023-05-29T06:45:48;13.80;98.80
39665;DHT22;26679;50.872;4.332;2023-05-29T06:48:14;13.90;98.90
39665;DHT22;26679;50.872;4.332;2023-05-29T06:50:39;13.90;99.00
39665;DHT22;26679;50.872;4.332;2023-05-29T06:53:05;14.10;98.70
39665;DHT22;26679;50.872;4.332;2023-05-29T06:55:30;14.30;98.20
39665;DHT22;26679;50.872;4.332;2023-05-29T06:57:56;14.30;98.10
39665;DHT22;26679;50.872;4.332;2023-05-29T07:00:21;14.50;97.70
39665;DHT22;26679;50.872;4.332;2023-05-29T07:02:48;14.50;98.10
39665;DHT22;26679;50.872;4.332;2023-05-29T07:05:13;14.80;97.80
39665;DHT22;26679;50.872;4.332;2023-05-29T07:07:39;14.90;96.80
39665;DHT22;26679;50.872;4.332;2023-05-29T07:10:05;14.90;96.60
39665;DHT22;26679;50.872;4.332;2023-05-29T07:12:31;14.90;96.80
39665;DHT22;26679;50.872;4.332;2023-05-29T07:14:56;15.00;96.60
39665;DHT22;26679;50.872;4.332;2023-05-29T07:17:22;15.00;96.60
39665;DHT22;26679;50.872;4.332;2023-05-29T07:19:47;15.10;96.30
39665;DHT22;26679;50.872;4.332;2023-05-29T07:22:15;15.30;96.20
39665;DHT22;26679;50.872;4.332;2023-05-29T07:24:40;15.10;95.90
39665;DHT22;26679;50.872;4.332;2023-05-29T07:27:06;14.90;96.40
39665;DHT22;26679;50.872;4.332;2023-05-29T07:29:31;15.00;96.30
39665;DHT22;26679;50.872;4.332;2023-05-29T07:31:57;15.10;96.10
39665;DHT22;26679;50.872;4.332;2023-05-29T07:34:23;15.30;96.10
39665;DHT22;26679;50.872;4.332;2023-05-29T07:39:25;15.60;95.10
39665;DHT22;26679;50.872;4.332;2023-05-29T07:41:51;15.70;94.90
39665;DHT22;26679;50.872;4.332;2023-05-29T07:44:16;15.80;94.70
39665;DHT22;26679;50.872;4.332;2023-05-29T07:46:42;15.80;94.50
39665;DHT22;26679;50.872;4.332;2023-05-29T07:49:07;15.70;94.70
39665;DHT22;26679;50.872;4.332;2023-05-29T07:51:33;15.80;94.60
39665;DHT22;26679;50.872;4.332;2023-05-29T07:53:58;15.80;94.50
39665;DHT22;26679;50.872;4.332;2023-05-29T07:56:24;15.90;94.20
39665;DHT22;26679;50.872;4.332;2023-05-29T07:58:50;15.80;94.40
39665;DHT22;26679;50.872;4.332;2023-05-29T08:01:18;16.00;94.10
39665;DHT22;26679;50.872;4.332;2023-05-29T08:03:44;16.10;93.90
39665;DHT22;26679;50.872;4.332;2023-05-29T08:06:10;16.20;93.50
39665;DHT22;26679;50.872;4.332;2023-05-29T08:08:35;16.30;93.40
39665;DHT22;26679;50.872;4.332;2023-05-29T08:11:01;16.50;93.30
39665;DHT22;26679;50.872;4.332;2023-05-29T08:13:26;16.70;93.00
39665;DHT22;26679;50.872;4.332;2023-05-29T08:15:52;16.50;93.00
39665;DHT22;26679;50.872;4.332;2023-05-29T08:18:18;16.40;93.50
39665;DHT22;26679;50.872;4.332;2023-05-29T08:20:44;16.60;93.20
39665;DHT22;26679;50.872;4.332;2023-05-29T08:23:10;16.60;92.90
39665;DHT22;26679;50.872;4.332;2023-05-29T08:25:35;16.50;93.00
39665;DHT22;26679;50.872;4.332;2023-05-29T08:28:01;16.60;93.00
39665;DHT22;26679;50.872;4.332;2023-05-29T08:30:26;16.50;93.20
39665;DHT22;26679;50.872;4.332;2023-05-29T08:32:52;16.70;93.00
39665;DHT22;26679;50.872;4.332;2023-05-29T08:35:17;17.10;92.80
39665;DHT22;26679;50.872;4.332;2023-05-29T08:37:44;17.00;92.40
39665;DHT22;26679;50.872;4.332;2023-05-29T08:40:10;16.90;92.80
39665;DHT22;26679;50.872;4.332;2023-05-29T08:42:36;16.90;92.20
39665;DHT22;26679;50.872;4.332;2023-05-29T08:45:05;16.70;92.50
39665;DHT22;26679;50.872;4.332;2023-05-29T08:47:33;16.60;92.80
39665;DHT22;26679;50.872;4.332;2023-05-29T08:49:58;16.60;92.90
39665;DHT22;26679;50.872;4.332;2023-05-29T08:52:25;16.90;92.80
39665;DHT22;26679;50.872;4.332;2023-05-29T08:54:55;17.00;92.60
39665;DHT22;26679;50.872;4.332;2023-05-29T08:57:21;17.20;92.30
39665;DHT22;26679;50.872;4.332;2023-05-29T08:59:47;17.40;92.20
39665;DHT22;26679;50.872;4.332;2023-05-29T09:02:14;17.50;92.00
39665;DHT22;26679;50.872;4.332;2023-05-29T09:04:41;17.60;91.80
39665;DHT22;26679;50.872;4.332;2023-05-29T09:07:07;17.60;91.90
39665;DHT22;26679;50.872;4.332;2023-05-29T09:09:34;17.70;91.90
39665;DHT22;26679;50.872;4.332;2023-05-29T09:11:59;17.90;91.50
39665;DHT22;26679;50.872;4.332;2023-05-29T09:14:35;17.90;91.40
39665;DHT22;26679;50.872;4.332;2023-05-29T09:17:01;18.10;91.20
39665;DHT22;26679;50.872;4.332;2023-05-29T09:19:27;18.30;91.00
39665;DHT22;26679;50.872;4.332;2023-05-29T09:21:59;18.30;90.70
39665;DHT22;26679;50.872;4.332;2023-05-29T09:24:25;18.40;90.60
39665;DHT22;26679;50.872;4.332;2023-05-29T09:26:52;18.50;90.50
39665;DHT22;26679;50.872;4.332;2023-05-29T09:29:18;18.80;90.10
39665;DHT22;26679;50.872;4.332;2023-05-29T09:31:47;19.60;89.60
39665;DHT22;26679;50.872;4.332;2023-05-29T09:34:13;20.60;87.00
39665;DHT22;26679;50.872;4.332;2023-05-29T09:36:39;21.60;84.80
39665;DHT22;26679;50.872;4.332;2023-05-29T09:39:05;21.80;83.40
39665;DHT22;26679;50.872;4.332;2023-05-29T09:41:40;22.00;82.80
39665;DHT22;26679;50.872;4.332;2023-05-29T09:44:06;22.70;81.20
39665;DHT22;26679;50.872;4.332;2023-05-29T09:46:35;22.40;81.80
39665;DHT22;26679;50.872;4.332;2023-05-29T09:49:01;22.70;80.30
39665;DHT22;26679;50.872;4.332;2023-05-29T09:51:27;23.00;80.40
39665;DHT22;26679;50.872;4.332;2023-05-29T09:53:53;23.60;78.60
39665;DHT22;26679;50.872;4.332;2023-05-29T09:56:19;23.50;78.10
39665;DHT22;26679;50.872;4.332;2023-05-29T09:58:46;21.70;80.70
39665;DHT22;26679;50.872;4.332;2023-05-29T10:01:13;21.20;81.70
39665;DHT22;26679;50.872;4.332;2023-05-29T10:03:41;21.10;82.30
39665;DHT22;26679;50.872;4.332;2023-05-29T10:06:08;22.00;80.30
39665;DHT22;26679;50.872;4.332;2023-05-29T10:08:37;22.20;80.70
39665;DHT22;26679;50.872;4.332;2023-05-29T10:11:04;22.40;80.00
39665;DHT22;26679;50.872;4.332;2023-05-29T10:13:36;22.60;78.90
39665;DHT22;26679;50.872;4.332;2023-05-29T10:16:03;22.60;79.60
39665;DHT22;26679;50.872;4.332;2023-05-29T10:18:32;23.60;77.30
39665;DHT22;26679;50.872;4.332;2023-05-29T10:21:00;23.20;77.70
39665;DHT22;26679;50.872;4.332;2023-05-29T10:23:26;23.90;77.40
39665;DHT22;26679;50.872;4.332;2023-05-29T10:25:54;23.60;76.80
39665;DHT22;26679;50.872;4.332;2023-05-29T10:28:24;24.00;76.80
39665;DHT22;26679;50.872;4.332;2023-05-29T10:31:00;24.00;76.60
39665;DHT22;26679;50.872;4.332;2023-05-29T10:33:37;24.80;76.00
39665;DHT22;26679;50.872;4.332;2023-05-29T10:38:37;25.00;74.70
39665;DHT22;26679;50.872;4.332;2023-05-29T10:43:39;26.20;73.40
39665;DHT22;26679;50.872;4.332;2023-05-29T10:46:07;26.50;72.70
39665;DHT22;26679;50.872;4.332;2023-05-29T10:48:36;26.10;71.80
39665;DHT22;26679;50.872;4.332;2023-05-29T10:51:01;25.50;73.20
39665;DHT22;26679;50.872;4.332;2023-05-29T10:53:30;26.10;72.90
39665;DHT22;26679;50.872;4.332;2023-05-29T10:55:56;26.60;71.60
39665;DHT22;26679;50.872;4.332;2023-05-29T10:58:24;26.50;71.70
39665;DHT22;26679;50.872;4.332;2023-05-29T11:00:51;27.40;70.40
39665;DHT22;26679;50.872;4.332;2023-05-29T11:03:21;27.90;69.30
39665;DHT22;26679;50.872;4.332;2023-05-29T11:08:28;28.10;69.40
39665;DHT22;26679;50.872;4.332;2023-05-29T11:10:55;27.20;70.20
39665;DHT22;26679;50.872;4.332;2023-05-29T11:18:27;27.10;69.80
39665;DHT22;26679;50.872;4.332;2023-05-29T11:21:00;27.30;69.60
39665;DHT22;26679;50.872;4.332;2023-05-29T11:23:29;26.40;70.20
39665;DHT22;26679;50.872;4.332;2023-05-29T11:25:56;26.70;70.60
39665;DHT22;26679;50.872;4.332;2023-05-29T11:28:22;27.30;70.00
39665;DHT22;26679;50.872;4.332;2023-05-29T11:30:48;27.60;69.10
39665;DHT22;26679;50.872;4.332;2023-05-29T11:33:22;28.50;68.70
39665;DHT22;26679;50.872;4.332;2023-05-29T11:35:50;29.20;67.90
39665;DHT22;26679;50.872;4.332;2023-05-29T11:38:18;29.40;67.30
39665;DHT22;26679;50.872;4.332;2023-05-29T11:40:44;30.00;66.90
39665;DHT22;26679;50.872;4.332;2023-05-29T11:43:11;30.00;66.30
39665;DHT22;26679;50.872;4.332;2023-05-29T11:45:37;28.90;67.70
39665;DHT22;26679;50.872;4.332;2023-05-29T11:48:03;29.40;67.00
39665;DHT22;26679;50.872;4.332;2023-05-29T11:50:29;29.50;66.70
39665;DHT22;26679;50.872;4.332;2023-05-29T11:52:56;29.60;66.20
39665;DHT22;26679;50.872;4.332;2023-05-29T11:55:22;29.30;66.80
39665;DHT22;26679;50.872;4.332;2023-05-29T11:57:48;29.80;66.50
39665;DHT22;26679;50.872;4.332;2023-05-29T12:00:15;30.20;65.70
39665;DHT22;26679;50.872;4.332;2023-05-29T12:02:41;30.50;65.80
39665;DHT22;26679;50.872;4.332;2023-05-29T12:05:13;30.60;65.60
39665;DHT22;26679;50.872;4.332;2023-05-29T12:10:16;31.30;64.50
39665;DHT22;26679;50.872;4.332;2023-05-29T12:12:42;27.20;67.80
39665;DHT22;26679;50.872;4.332;2023-05-29T12:15:08;26.20;69.90
39665;DHT22;26679;50.872;4.332;2023-05-29T12:17:34;27.20;69.40
39665;DHT22;26679;50.872;4.332;2023-05-29T12:20:00;28.70;68.30
39665;DHT22;26679;50.872;4.332;2023-05-29T12:22:33;29.30;67.00
39665;DHT22;26679;50.872;4.332;2023-05-29T12:25:03;29.80;66.10
39665;DHT22;26679;50.872;4.332;2023-05-29T12:27:30;29.80;66.10
39665;DHT22;26679;50.872;4.332;2023-05-29T12:30:03;29.90;65.60
39665;DHT22;26679;50.872;4.332;2023-05-29T12:32:35;30.00;65.20
39665;DHT22;26679;50.872;4.332;2023-05-29T12:35:01;29.40;65.50
39665;DHT22;26679;50.872;4.332;2023-05-29T12:37:34;29.80;65.50
39665;DHT22;26679;50.872;4.332;2023-05-29T12:42:38;30.10;65.40
39665;DHT22;26679;50.872;4.332;2023-05-29T12:45:04;30.20;64.80
39665;DHT22;26679;50.872;4.332;2023-05-29T12:47:31;30.20;64.30
39665;DHT22;26679;50.872;4.332;2023-05-29T12:49:57;29.50;65.10
39665;DHT22;26679;50.872;4.332;2023-05-29T12:52:23;30.40;64.80
39665;DHT22;26679;50.872;4.332;2023-05-29T12:54:48;29.50;64.90
39665;DHT22;26679;50.872;4.332;2023-05-29T12:57:14;29.60;65.20
39665;DHT22;26679;50.872;4.332;2023-05-29T12:59:40;28.90;66.10
39665;DHT22;26679;50.872;4.332;2023-05-29T13:02:05;29.70;65.30
39665;DHT22;26679;50.872;4.332;2023-05-29T13:04:33;29.70;65.00
39665;DHT22;26679;50.872;4.332;2023-05-29T13:06:59;30.30;65.20
39665;DHT22;26679;50.872;4.332;2023-05-29T13:09:24;31.30;64.50
39665;DHT22;26679;50.872;4.332;2023-05-29T13:11:50;29.50;65.30
39665;DHT22;26679;50.872;4.332;2023-05-29T13:14:18;29.50;65.90
39665;DHT22;26679;50.872;4.332;2023-05-29T13:16:43;30.50;65.10
39665;DHT22;26679;50.872;4.332;2023-05-29T13:19:09;31.20;64.40
39665;DHT22;26679;50.872;4.332;2023-05-29T13:21:35;31.60;63.60
39665;DHT22;26679;50.872;4.332;2023-05-29T13:24:00;31.30;63.70
39665;DHT22;26679;50.872;4.332;2023-05-29T13:26:26;31.60;63.60
39665;DHT22;26679;50.872;4.332;2023-05-29T13:28:52;31.40;63.50
39665;DHT22;26679;50.872;4.332;2023-05-29T13:31:17;30.90;63.90
39665;DHT22;26679;50.872;4.332;2023-05-29T13:33:43;30.60;64.50
39665;DHT22;26679;50.872;4.332;2023-05-29T13:36:08;31.10;64.10
39665;DHT22;26679;50.872;4.332;2023-05-29T13:38:34;29.50;64.50
39665;DHT22;26679;50.872;4.332;2023-05-29T13:40:59;28.00;66.50
39665;DHT22;26679;50.872;4.332;2023-05-29T13:43:25;27.80;66.90
39665;DHT22;26679;50.872;4.332;2023-05-29T13:45:50;28.80;65.90
39665;DHT22;26679;50.872;4.332;2023-05-29T13:48:16;29.20;65.70
39665;DHT22;26679;50.872;4.332;2023-05-29T13:50:41;30.40;65.20
39665;DHT22;26679;50.872;4.332;2023-05-29T13:53:07;30.90;64.30
39665;DHT22;26679;50.872;4.332;2023-05-29T13:55:32;30.20;63.70
39665;DHT22;26679;50.872;4.332;2023-05-29T13:57:58;29.70;64.50
39665;DHT22;26679;50.872;4.332;2023-05-29T14:00:23;30.20;64.50
39665;DHT22;26679;50.872;4.332;2023-05-29T14:02:49;30.80;64.10
39665;DHT22;26679;50.872;4.332;2023-05-29T14:05:15;31.60;63.90
39665;DHT22;26679;50.872;4.332;2023-05-29T14:07:40;31.70;63.40
39665;DHT22;26679;50.872;4.332;2023-05-29T14:10:06;31.50;63.50
39665;DHT22;26679;50.872;4.332;2023-05-29T14:12:32;31.30;63.70
39665;DHT22;26679;50.872;4.332;2023-05-29T14:14:57;30.70;63.50
39665;DHT22;26679;50.872;4.332;2023-05-29T14:17:23;28.70;65.30
39665;DHT22;26679;50.872;4.332;2023-05-29T14:19:48;28.80;66.40
39665;DHT22;26679;50.872;4.332;2023-05-29T14:22:14;29.90;65.00
39665;DHT22;26679;50.872;4.332;2023-05-29T14:24:39;30.50;64.90
39665;DHT22;26679;50.872;4.332;2023-05-29T14:27:05;30.40;63.90
39665;DHT22;26679;50.872;4.332;2023-05-29T14:29:31;30.60;63.50
39665;DHT22;26679;50.872;4.332;2023-05-29T14:31:56;29.50;64.60
39665;DHT22;26679;50.872;4.332;2023-05-29T14:34:22;29.90;64.40
39665;DHT22;26679;50.872;4.332;2023-05-29T14:36:47;29.40;64.10
39665;DHT22;26679;50.872;4.332;2023-05-29T14:39:13;29.70;64.80
39665;DHT22;26679;50.872;4.332;2023-05-29T14:41:38;29.40;64.80
39665;DHT22;26679;50.872;4.332;2023-05-29T14:44:04;28.40;65.60
39665;DHT22;26679;50.872;4.332;2023-05-29T14:46:29;28.70;65.60
39665;DHT22;26679;50.872;4.332;2023-05-29T14:49:00;28.50;65.80
39665;DHT22;26679;50.872;4.332;2023-05-29T14:51:26;28.90;65.30
39665;DHT22;26679;50.872;4.332;2023-05-29T14:53:52;28.50;65.90
39665;DHT22;26679;50.872;4.332;2023-05-29T14:56:17;28.70;65.70
39665;DHT22;26679;50.872;4.332;2023-05-29T14:58:44;28.00;66.10
39665;DHT22;26679;50.872;4.332;2023-05-29T15:01:10;27.30;67.10
39665;DHT22;26679;50.872;4.332;2023-05-29T15:03:36;27.80;67.00
39665;DHT22;26679;50.872;4.332;2023-05-29T15:06:02;28.00;66.70
39665;DHT22;26679;50.872;4.332;2023-05-29T15:08:28;28.40;67.00
39665;DHT22;26679;50.872;4.332;2023-05-29T15:10:56;27.90;66.90
39665;DHT22;26679;50.872;4.332;2023-05-29T15:13:22;28.20;66.80
39665;DHT22;26679;50.872;4.332;2023-05-29T15:15:47;28.40;66.80
39665;DHT22;26679;50.872;4.332;2023-05-29T15:18:13;28.30;66.40
39665;DHT22;26679;50.872;4.332;2023-05-29T15:20:38;28.10;66.30
39665;DHT22;26679;50.872;4.332;2023-05-29T15:23:04;27.70;67.40
39665;DHT22;26679;50.872;4.332;2023-05-29T15:25:30;27.70;66.60
39665;DHT22;26679;50.872;4.332;2023-05-29T15:27:56;27.60;66.40
39665;DHT22;26679;50.872;4.332;2023-05-29T15:30:21;27.30;67.00
39665;DHT22;26679;50.872;4.332;2023-05-29T15:32:47;26.70;67.70
39665;DHT22;26679;50.872;4.332;2023-05-29T15:35:13;26.80;67.60
39665;DHT22;26679;50.872;4.332;2023-05-29T15:37:39;26.60;67.60
39665;DHT22;26679;50.872;4.332;2023-05-29T15:40:05;26.90;67.30
39665;DHT22;26679;50.872;4.332;2023-05-29T15:42:31;26.70;66.90
39665;DHT22;26679;50.872;4.332;2023-05-29T15:44:57;26.70;67.20
39665;DHT22;26679;50.872;4.332;2023-05-29T15:47:23;26.70;67.20
39665;DHT22;26679;50.872;4.332;2023-05-29T15:49:48;26.40;67.40
39665;DHT22;26679;50.872;4.332;2023-05-29T15:52:14;26.00;67.70
39665;DHT22;26679;50.872;4.332;2023-05-29T15:54:39;25.90;67.80
39665;DHT22;26679;50.872;4.332;2023-05-29T15:57:05;25.60;68.00